Time,TemperatureF,DewpointF,PressureIn,WindDirection,WindDirectionDegrees,WindSpeedMPH,WindSpeedGustMPH,Humidity,HourlyPrecipIn,Conditions,Clouds,dailyrainin,SoftwareType,DateUTC
2013-07-16 00:01:00,61.7,61.7,27.12,East,92,0.0,1.0,100,0.00,,,-99.99,VWS V12.07,2013-07-16 04:01:00,
2013-07-16 00:31:00,61.6,61.6,27.11,East,92,0.0,2.0,100,0.00,,,-99.99,VWS V12.07,2013-07-16 04:31:00,
2013-07-16 01:01:00,61.1,61.1,27.11,East,92,0.0,2.0,100,0.00,,,-99.99,VWS V12.07,2013-07-16 05:01:00,
2013-07-16 01:31:00,60.8,60.8,27.11,East,92,1.0,190.0,100,0.00,,,-99.99,VWS V12.07,2013-07-16 05:31:00,
2013-07-16 02:01:00,60.3,60.3,27.10,East,92,2.0,21.0,100,0.00,,,-99.99,VWS V12.07,2013-07-16 06:01:00,
2013-07-16 02:31:00,59.6,59.6,27.10,East,92,64.0,217.0,100,0.00,,,-99.99,VWS V12.07,2013-07-16 06:31:00,
2013-07-16 03:01:00,59.4,59.4,27.10,East,92,32.0,36.0,100,0.00,,,-99.99,VWS V12.07,2013-07-16 07:01:00,
2013-07-16 03:31:00,59.1,59.1,27.09,East,93,48.0,48.0,100,0.00,,,-99.99,VWS V12.07,2013-07-16 07:31:00,
2013-07-16 04:01:00,58.3,58.3,27.09,East,92,12.0,38.0,100,0.00,,,-99.99,VWS V12.07,2013-07-16 08:01:00,
2013-07-16 04:31:00,58.2,58.2,27.09,East,92,33.0,80.0,100,0.01,,,-99.99,VWS V12.07,2013-07-16 08:31:00,
2013-07-16 05:01:00,58.3,58.3,27.09,East,92,0.0,0.0,100,0.01,,,-99.99,VWS V12.07,2013-07-16 09:01:00,
2013-07-16 05:31:00,58.0,58.0,27.10,SSE,168,0.0,0.0,100,0.00,,,-99.99,VWS V12.07,2013-07-16 09:31:00,
2013-07-16 06:01:00,58.3,58.3,27.10,SSE,164,15.0,23.0,100,0.00,,,-99.99,VWS V12.07,2013-07-16 10:01:00,
2013-07-16 06:31:00,60.8,60.8,27.10,ENE,74,14.0,21.0,100,0.00,,,-99.99,VWS V12.07,2013-07-16 10:31:00,
2013-07-16 07:01:00,62.8,62.8,27.11,SE,128,2.0,45.0,100,0.00,,,-99.99,VWS V12.07,2013-07-16 11:01:00,
2013-07-16 07:31:00,64.3,64.3,27.11,SSE,160,10.0,17.0,100,0.00,,,-99.99,VWS V12.07,2013-07-16 11:31:00,
2013-07-16 08:01:00,68.2,68.2,27.12,SSE,159,0.0,2.0,100,0.00,,,-99.99,VWS V12.07,2013-07-16 12:01:00,
2013-07-16 08:31:00,72.1,71.8,27.13,SSE,159,0.0,0.0,99,0.00,,,-99.99,VWS V12.07,2013-07-16 12:31:00,
2013-07-16 09:01:00,73.6,71.5,27.12,SSE,160,0.0,62.0,93,0.00,,,-99.99,VWS V12.07,2013-07-16 13:01:00,
2013-07-16 09:31:00,75.1,69.9,27.13,NNW,327,10.0,52.0,84,0.00,,,-99.99,VWS V12.07,2013-07-16 13:31:00,
2013-07-16 10:01:00,76.9,71.7,27.12,WNW,300,7.0,12.0,84,0.00,,,-99.99,VWS V12.07,2013-07-16 14:01:00,
2013-07-16 10:31:00,77.6,68.7,27.12,NW,316,0.0,9.0,74,0.00,,,-99.99,VWS V12.07,2013-07-16 14:31:00,
2013-07-16 11:01:00,77.4,68.5,27.11,NNE,23,4.0,8.0,74,0.00,,,-99.99,VWS V12.07,2013-07-16 15:01:00,
2013-07-16 11:31:00,78.5,69.5,27.11,NNW,331,5.0,10.0,74,0.00,,,-99.99,VWS V12.07,2013-07-16 15:31:00,
2013-07-16 12:01:00,78.9,67.4,27.11,NNE,15,4.0,6.0,68,0.00,,,-99.99,VWS V12.07,2013-07-16 16:01:00,
2013-07-16 12:31:00,79.6,69.8,27.10,NNE,30,10.0,14.0,72,0.00,,,-99.99,VWS V12.07,2013-07-16 16:31:00,
2013-07-16 13:01:00,79.4,69.6,27.10,North,352,3.0,5.0,72,0.00,,,-99.99,VWS V12.07,2013-07-16 17:01:00,
2013-07-16 13:31:00,79.8,68.3,27.09,NNE,24,3.0,3.0,68,0.00,,,-99.99,VWS V12.07,2013-07-16 17:31:00,
2013-07-16 14:01:00,81.1,67.8,27.09,NW,324,0.0,2.0,64,0.00,,,-99.99,VWS V12.07,2013-07-16 18:01:00,
2013-07-16 14:31:00,80.6,69.1,27.08,North,0,4.0,7.0,68,0.00,,,-99.99,VWS V12.07,2013-07-16 18:31:00,
2013-07-16 15:01:00,82.2,70.2,27.07,NNE,15,0.0,0.0,67,0.00,,,-99.99,VWS V12.07,2013-07-16 19:01:00,
2013-07-16 15:31:00,80.9,70.6,27.06,NE,49,57.0,126.0,71,0.00,,,-99.99,VWS V12.07,2013-07-16 19:31:00,
2013-07-16 16:01:00,80.6,71.2,27.06,NNE,30,2.0,3.0,73,0.00,,,-99.99,VWS V12.07,2013-07-16 20:01:00,
2013-07-16 16:31:00,78.9,72.2,27.07,ENE,64,2.0,44.0,80,0.00,,,-99.99,VWS V12.07,2013-07-16 20:31:00,
2013-07-16 17:01:00,77.8,71.5,27.07,East,84,1.0,33.0,81,0.00,,,-99.99,VWS V12.07,2013-07-16 21:01:00,
2013-07-16 17:31:00,77.2,70.2,27.07,East,84,18.0,43.0,79,0.00,,,-99.99,VWS V12.07,2013-07-16 21:31:00,
2013-07-16 18:01:00,75.8,68.5,27.07,SE,139,0.0,0.0,78,0.00,,,-99.99,VWS V12.07,2013-07-16 22:01:00,
2013-07-16 18:31:00,73.4,69.3,27.07,SE,144,0.0,0.0,87,0.00,,,-99.99,VWS V12.07,2013-07-16 22:31:00,
2013-07-16 19:01:00,71.4,69.6,27.07,SE,144,0.0,0.0,94,0.00,,,-99.99,VWS V12.07,2013-07-16 23:01:00,
2013-07-16 19:31:00,70.0,69.7,27.08,ESE,108,0.0,0.0,99,0.00,,,-99.99,VWS V12.07,2013-07-16 23:31:00,
2013-07-16 20:01:00,70.2,69.3,27.09,WNW,303,0.0,0.0,97,0.00,,,-99.99,VWS V12.07,2013-07-17 00:01:00,
2013-07-16 20:31:00,69.4,69.4,27.09,WNW,303,0.0,0.0,100,0.00,,,-99.99,VWS V12.07,2013-07-17 00:31:00,
2013-07-16 21:01:00,68.5,68.5,27.10,WNW,303,0.0,0.0,100,0.00,,,-99.99,VWS V12.07,2013-07-17 01:01:00,
2013-07-16 21:31:00,67.9,67.9,27.09,WNW,303,0.0,0.0,100,0.00,,,-99.99,VWS V12.07,2013-07-17 01:31:00,
2013-07-16 22:01:00,67.6,67.6,27.08,West,279,0.0,0.0,100,0.00,,,-99.99,VWS V12.07,2013-07-17 02:01:00,
2013-07-16 22:31:00,67.6,67.6,27.08,West,279,0.0,0.0,100,0.00,,,-99.99,VWS V12.07,2013-07-17 02:31:00,
2013-07-16 23:01:00,67.0,67.0,27.08,West,279,0.0,0.0,100,0.00,,,-99.99,VWS V12.07,2013-07-17 03:01:00,
2013-07-16 23:31:00,66.5,66.5,27.08,West,279,0.0,0.0,100,0.00,,,-99.99,VWS V12.07,2013-07-17 03:31:00,